< < Back
Terminal Aerodrome Forecast


Current Version              Previous Versions:   1  2  3  4  5  6  7  8  9  

Terminal Aerodrome Forecast

393
FTUS42 KCAE 241400 AAA
TAFAGS
TAF AMD
KAGS 241438Z 2415/2512 09007KT P6SM SKC
     FM242000 12007KT P6SM SCT045
     FM250900 VRB03KT 3SM BR BKN015=



Latest METAR

464
SAUS70 KWBC 242300 RRH
MTRAGS
METAR KAGS 242253Z 20005KT 10SM SCT090 26/10 A2994 RMK AO2 SLP137
T02560100


USA.gov is the U.S. government's official web portal to all federal, state and local government web resources and services.